Kenyon, Minnesota
Current Conditions -  °F | °C
As of 1:14 PM on Friday 21 Nov 2014 (Local Time) from KSYN Reporting Station
Clear Clear  
Wind Chill: 14°   Ceiling: Unl
Heat Index: 26°   Visibility: 10mi
Dew Point: 16°   Wind: 15mph
Humidity: 64%   Direction: 180°S
Pressure: 30.09"   Gusts: 24mph
Location:  44.27°N, 92.99°W
Report Text: KSYN 211914Z AUTO 18013G21KT 10SM CLR M03/M09 A3009 RMK AO2 T10311091
Loading
Personal Weather Stations






























Interactive Weather Map New forecast layout! Learn more

10-Day Weather Forecast

Advertisements
Track Severe Weather on mobile